createdAt,value
2023-03-16T00:04:13.278Z,695.57
2023-03-16T00:09:14.955Z,696.23
2023-03-16T00:14:16.686Z,693.50
2023-03-16T00:19:18.390Z,693.17
2023-03-16T00:24:20.197Z,695.38
2023-03-16T00:29:22.755Z,700.42
2023-03-16T00:34:25.878Z,699.92
2023-03-16T00:39:27.575Z,697.55
2023-03-16T00:44:29.237Z,693.22
2023-03-16T00:49:34.821Z,696.60
2023-03-16T00:54:36.857Z,698.30
2023-03-16T00:59:38.590Z,695.03
2023-03-16T01:04:41.708Z,695.38
2023-03-16T01:09:43.982Z,695.38
2023-03-16T01:14:47.307Z,695.30
2023-03-16T01:19:49.327Z,696.33
2023-03-16T01:24:51.105Z,698.17
2023-03-16T01:29:52.905Z,697.35
2023-03-16T01:34:54.866Z,698.63
2023-03-16T01:39:58.288Z,693.88
2023-03-16T01:45:05.665Z,696.50
2023-03-16T01:50:13.325Z,696.05
2023-03-16T01:55:16.947Z,695.15
2023-03-16T02:00:20.083Z,694.85
2023-03-16T02:05:45.550Z,697.20
2023-03-16T02:10:54.623Z,698.40
2023-03-16T02:15:57.548Z,699.50
2023-03-16T02:21:18.415Z,695.70
2023-03-16T02:26:37.583Z,694.15
2023-03-16T02:31:39.481Z,701.13
2023-03-16T02:36:42.210Z,693.70
2023-03-16T02:41:45.031Z,695.05
2023-03-16T02:46:48.203Z,692.72
2023-03-16T02:51:50.050Z,693.25
2023-03-16T02:56:52.759Z,700.40
2023-03-16T03:01:56.210Z,697.72
2023-03-16T03:07:04.052Z,697.60
2023-03-16T03:12:10.342Z,697.88
2023-03-16T03:17:13.411Z,695.85
2023-03-16T03:22:18.621Z,698.20
2023-03-16T03:27:22.666Z,699.63
2023-03-16T03:32:26.558Z,704.70
2023-03-16T03:37:28.922Z,693.30
2023-03-16T03:42:31.132Z,695.53
2023-03-16T03:47:34.264Z,695.08
2023-03-16T03:52:37.394Z,698.28
2023-03-16T03:57:39.682Z,698.33
2023-03-16T04:02:41.682Z,697.40
2023-03-16T04:07:55.105Z,694.83
2023-03-16T04:12:57.953Z,696.85
2023-03-16T04:18:01.992Z,693.92
2023-03-16T04:23:05.033Z,692.60
2023-03-16T04:28:08.427Z,698.55
2023-03-16T04:33:13.030Z,698.45
2023-03-16T04:38:14.936Z,695.40
2023-03-16T04:43:26.805Z,693.90
2023-03-16T04:48:32.891Z,697.13
2023-03-16T04:53:36.372Z,695.50
2023-03-16T04:58:46.662Z,697.40
2023-03-16T05:03:49.835Z,702.50
2023-03-16T05:08:53.367Z,694.80
2023-03-16T05:13:55.261Z,693.13
2023-03-16T05:19:01.317Z,691.92
2023-03-16T05:24:09.955Z,691.77
2023-03-16T05:29:12.196Z,694.80
2023-03-16T05:34:14.660Z,695.20
2023-03-16T05:39:16.618Z,696.72
2023-03-16T05:44:22.409Z,698.47
2023-03-16T05:49:43.600Z,700.08
2023-03-16T05:54:55.541Z,697.78
2023-03-16T05:59:57.563Z,697.38
2023-03-16T06:04:59.469Z,697.42
2023-03-16T06:10:01.486Z,699.17
2023-03-16T06:15:08.696Z,694.53
2023-03-16T06:20:13.109Z,696.63
2023-03-16T06:25:16.826Z,691.97
2023-03-16T06:30:21.314Z,699.05
2023-03-16T06:35:23.147Z,696.95
2023-03-16T06:40:41.396Z,695.60
2023-03-16T06:45:43.422Z,695.20
2023-03-16T06:50:46.460Z,699.50
2023-03-16T06:55:49.891Z,700.53
2023-03-16T07:00:53.965Z,697.05
2023-03-16T07:05:55.777Z,696.67
2023-03-16T07:10:57.910Z,698.47
2023-03-16T07:16:00.618Z,696.45
2023-03-16T07:21:02.476Z,697.63
2023-03-16T07:26:04.252Z,694.70
2023-03-16T07:31:09.550Z,694.93
2023-03-16T07:36:14.441Z,701.40
2023-03-16T07:46:23.566Z,695.37
2023-03-16T07:51:26.042Z,699.03
2023-03-16T07:56:31.600Z,692.23
2023-03-16T08:01:38.434Z,695.03
2023-03-16T08:06:40.539Z,704.67
2023-03-16T08:11:43.370Z,698.17
2023-03-16T08:16:46.106Z,698.83
2023-03-16T08:22:01.120Z,692.70
2023-03-16T08:27:08.478Z,694.83
2023-03-16T08:32:12.632Z,701.37
2023-03-16T08:37:18.556Z,696.10
2023-03-16T08:42:22.266Z,699.00
2023-03-16T08:47:29.810Z,702.83
2023-03-16T08:52:33.779Z,700.47
2023-03-16T08:57:35.738Z,703.88
2023-03-16T09:02:38.744Z,705.20
2023-03-16T09:07:40.894Z,702.97
2023-03-16T09:12:43.547Z,711.38
2023-03-16T09:17:48.373Z,708.45
2023-03-16T09:22:50.080Z,708.17
2023-03-16T09:27:52.857Z,709.67
2023-03-16T09:32:54.603Z,703.70
2023-03-16T09:38:06.336Z,707.30
2023-03-16T09:43:33.537Z,708.45
2023-03-16T09:48:37.090Z,709.60
2023-03-16T09:53:39.310Z,711.25
2023-03-16T09:58:41.051Z,718.58
2023-03-16T10:03:50.915Z,714.85
2023-03-16T10:08:55.718Z,727.78
2023-03-16T10:14:17.707Z,732.63
2023-03-16T10:19:38.570Z,737.50
2023-03-16T10:24:43.162Z,730.63
2023-03-16T10:29:44.884Z,740.47
2023-03-16T10:34:59.101Z,744.57
2023-03-16T10:40:01.254Z,750.23
2023-03-16T10:45:03.763Z,746.80
2023-03-16T10:50:16.896Z,751.33
2023-03-16T10:55:30.680Z,753.23
2023-03-16T11:00:38.449Z,776.80
2023-03-16T11:10:55.219Z,763.25
2023-03-16T11:16:28.215Z,771.40
2023-03-16T11:21:42.474Z,752.30
2023-03-16T11:26:44.858Z,761.63
2023-03-16T11:32:05.950Z,763.42
2023-03-16T11:37:17.011Z,769.97
2023-03-16T11:42:29.878Z,764.27
2023-03-16T11:47:50.901Z,765.33
2023-03-16T11:53:12.284Z,754.47
2023-03-16T11:58:32.825Z,765.20
2023-03-16T12:03:55.171Z,774.17
2023-03-16T12:09:04.362Z,769.97
2023-03-16T12:14:06.042Z,780.33
2023-03-16T12:19:14.632Z,767.17
2023-03-16T12:24:22.595Z,783.73
2023-03-16T12:29:41.570Z,796.57
2023-03-16T12:35:03.142Z,794.17
2023-03-16T12:40:25.168Z,801.07
2023-03-16T12:45:39.070Z,785.00
2023-03-16T12:50:51.037Z,792.43
2023-03-16T12:55:53.142Z,801.10
2023-03-16T13:00:56.974Z,814.80
2023-03-16T13:06:00.725Z,808.30
2023-03-16T13:11:07.410Z,799.95
2023-03-16T13:16:22.338Z,794.63
2023-03-16T13:21:41.034Z,803.90
2023-03-16T13:26:46.251Z,803.03
2023-03-16T13:31:48.486Z,801.00
2023-03-16T13:36:55.229Z,826.95
2023-03-16T13:42:18.366Z,812.75
2023-03-16T13:47:21.270Z,818.25
2023-03-16T13:52:32.955Z,813.08
2023-03-16T13:57:39.201Z,825.33
2023-03-16T14:02:42.575Z,832.88
2023-03-16T14:07:46.725Z,815.35
2023-03-16T14:12:55.110Z,820.85
2023-03-16T14:18:08.248Z,828.42
2023-03-16T14:23:39.271Z,839.42
2023-03-16T14:28:41.576Z,837.38
2023-03-16T14:33:43.292Z,836.47
2023-03-16T14:38:48.223Z,834.05
2023-03-16T14:43:55.573Z,828.53
2023-03-16T14:49:08.768Z,834.08
2023-03-16T14:54:14.632Z,827.47
2023-03-16T14:59:16.737Z,822.60
2023-03-16T15:04:20.659Z,827.40
2023-03-16T15:09:25.721Z,830.35
2023-03-16T15:14:45.856Z,822.70
2023-03-16T15:19:48.568Z,826.60
2023-03-16T15:25:26.986Z,823.60
2023-03-16T15:30:30.808Z,824.80
2023-03-16T15:35:32.869Z,832.08
2023-03-16T15:40:42.163Z,820.67
2023-03-16T15:45:44.268Z,821.13
2023-03-16T15:50:52.413Z,822.20
2023-03-16T15:55:59.046Z,820.45
2023-03-16T16:01:01.739Z,815.67
2023-03-16T16:06:03.801Z,811.50
2023-03-16T16:11:09.240Z,825.88
2023-03-16T16:16:13.377Z,819.75
2023-03-16T16:21:24.750Z,819.15
2023-03-16T16:26:34.321Z,812.13
2023-03-16T16:31:43.709Z,816.95
2023-03-16T16:36:45.652Z,819.95
2023-03-16T16:41:48.368Z,818.13
2023-03-16T16:46:50.887Z,812.22
2023-03-16T16:51:52.817Z,810.63
2023-03-16T16:56:55.141Z,808.75
2023-03-16T17:01:57.580Z,808.67
2023-03-16T17:07:02.723Z,812.97
2023-03-16T17:12:04.698Z,810.47
2023-03-16T17:17:12.085Z,804.40
2023-03-16T17:27:21.672Z,804.20
2023-03-16T17:32:23.368Z,796.22
2023-03-16T17:37:25.077Z,797.85
2023-03-16T17:42:27.058Z,793.55
2023-03-16T17:47:31.247Z,797.90
2023-03-16T17:52:33.554Z,785.03
2023-03-16T17:57:36.331Z,780.90
2023-03-16T18:02:55.064Z,792.15
2023-03-16T18:08:07.373Z,789.78
2023-03-16T18:13:16.983Z,786.55
2023-03-16T18:18:21.350Z,781.10
2023-03-16T18:23:27.832Z,775.35
2023-03-16T18:28:30.467Z,771.88
2023-03-16T18:33:36.792Z,706.20
2023-03-16T18:38:39.933Z,767.38
2023-03-16T18:43:41.878Z,778.03
2023-03-16T18:48:43.594Z,779.67
2023-03-16T18:53:45.267Z,768.40
2023-03-16T18:58:47.784Z,773.75
2023-03-16T19:03:50.032Z,757.45
2023-03-16T19:08:52.055Z,740.33
2023-03-16T19:13:54.881Z,737.43
2023-03-16T19:18:56.601Z,740.00
2023-03-16T19:24:00.486Z,735.10
2023-03-16T19:29:03.234Z,738.15
2023-03-16T19:34:10.646Z,734.27
2023-03-16T19:39:13.366Z,737.30
2023-03-16T19:44:17.467Z,736.85
2023-03-16T19:49:20.245Z,733.97
2023-03-16T19:54:23.221Z,737.83
2023-03-16T19:59:28.750Z,738.10
2023-03-16T20:04:31.373Z,731.00
2023-03-16T20:09:33.151Z,735.65
2023-03-16T20:14:34.915Z,736.53
2023-03-16T20:19:36.625Z,724.80
2023-03-16T20:24:38.720Z,728.97
2023-03-16T20:29:40.887Z,735.58
2023-03-16T20:34:42.644Z,738.72
2023-03-16T20:39:45.163Z,740.63
2023-03-16T20:44:47.599Z,731.17
2023-03-16T20:49:50.667Z,738.35
2023-03-16T20:54:52.571Z,738.20
2023-03-16T20:59:55.494Z,738.70
2023-03-16T21:04:58.344Z,736.55
2023-03-16T21:10:00.317Z,741.63
2023-03-16T21:15:02.682Z,741.22
2023-03-16T21:20:20.725Z,738.83
2023-03-16T21:25:24.417Z,729.53
2023-03-16T21:30:29.285Z,723.58
2023-03-16T21:35:35.378Z,731.88
2023-03-16T21:40:37.213Z,723.37
2023-03-16T21:45:39.367Z,723.20
2023-03-16T21:50:41.114Z,720.73
2023-03-16T21:55:42.888Z,722.67
2023-03-16T22:00:45.898Z,719.50
2023-03-16T22:05:48.087Z,714.50
2023-03-16T22:10:50.668Z,713.53
2023-03-16T22:15:53.281Z,718.67
2023-03-16T22:20:55.874Z,716.53
2023-03-16T22:25:58.094Z,719.70
2023-03-16T22:31:04.230Z,722.00
2023-03-16T22:36:08.335Z,715.05
2023-03-16T22:41:15.573Z,721.30
2023-03-16T22:46:21.794Z,720.17
2023-03-16T22:51:25.915Z,720.22
2023-03-16T22:56:29.534Z,717.72
2023-03-16T23:01:39.553Z,725.73
2023-03-16T23:06:41.892Z,723.00
2023-03-16T23:11:44.392Z,721.77
2023-03-16T23:16:46.732Z,719.80
2023-03-16T23:21:49.056Z,716.85
2023-03-16T23:26:51.688Z,726.23
2023-03-16T23:31:54.546Z,719.80
2023-03-16T23:36:56.254Z,718.95
2023-03-16T23:41:57.978Z,719.60
2023-03-16T23:47:00.085Z,719.03
2023-03-16T23:52:02.123Z,718.28
2023-03-16T23:57:04.012Z,718.75
